Time;durP1;ratioP1;P1;durP2;ratioP2;P2;SDS_P1;SDS_P2;PMS_P1;PMS_P2;Temp;Humidity;BMP_temperature;BMP_pressure;BME280_temperature;BME280_humidity;BME280_pressure;Samples;Min_cycle;Max_cycle;Signal;HPM_P1;HPM_P2
2022/03/19 00:04:57;;;;;;;41.50;20.50;;;;;;;2.99;36.04;101468.50;233404;1217;139228;-63
2022/03/19 00:10:00;;;;;;;39.60;21.10;;;;;;;2.96;36.10;101463.91;233431;1217;140087;-61
2022/03/19 00:15:04;;;;;;;42.60;20.70;;;;;;;2.92;36.14;101461.23;233082;1217;138905;-59
2022/03/19 00:20:08;;;;;;;36.80;19.80;;;;;;;2.87;36.08;101456.46;233340;1217;139361;-59
2022/03/19 00:25:12;;;;;;;38.50;19.40;;;;;;;2.81;35.96;101456.08;233204;1217;139332;-59
2022/03/19 00:30:15;;;;;;;39.10;20.00;;;;;;;2.79;36.22;101452.55;233305;1217;139278;-59
2022/03/19 00:35:18;;;;;;;40.30;19.50;;;;;;;2.76;36.17;101449.71;233235;1217;139756;-58
2022/03/19 00:40:23;;;;;;;40.40;20.00;;;;;;;2.74;36.34;101450.04;233177;1217;139444;-59
2022/03/19 00:45:27;;;;;;;39.00;20.00;;;;;;;2.71;36.30;101454.05;233468;1217;140880;-60
2022/03/19 00:50:30;;;;;;;44.70;21.30;;;;;;;2.68;36.54;101453.85;233503;1217;140286;-58
2022/03/19 00:55:33;;;;;;;41.20;19.20;;;;;;;2.65;36.49;101446.29;233218;1217;138910;-58
2022/03/19 01:00:36;;;;;;;38.90;19.70;;;;;;;2.58;36.46;101441.85;233393;1217;139727;-58
2022/03/19 01:05:42;;;;;;;39.10;20.50;;;;;;;2.53;36.58;101438.80;233433;1217;138790;-58
2022/03/19 01:10:45;;;;;;;35.40;19.00;;;;;;;2.49;36.63;101425.29;233179;1217;138803;-59
2022/03/19 01:15:48;;;;;;;44.20;20.90;;;;;;;2.51;36.58;101421.27;233347;1217;139471;-59
2022/03/19 01:20:51;;;;;;;41.00;19.60;;;;;;;2.51;36.80;101423.20;233178;1217;139090;-59
2022/03/19 01:25:54;;;;;;;44.30;22.20;;;;;;;2.46;36.83;101424.90;233194;1217;139107;-62
2022/03/19 01:30:57;;;;;;;38.10;20.60;;;;;;;2.40;37.05;101422.57;233183;1218;139464;-62
2022/03/19 01:36:00;;;;;;;40.90;21.30;;;;;;;2.34;37.31;101417.61;233222;1217;139550;-62
2022/03/19 01:41:03;;;;;;;39.20;22.00;;;;;;;2.25;37.48;101420.50;233139;1217;139103;-63
2022/03/19 01:46:09;;;;;;;43.70;22.40;;;;;;;2.15;37.67;101422.30;233429;1217;139670;-63
2022/03/19 01:51:12;;;;;;;41.20;21.90;;;;;;;2.04;37.76;101419.73;233156;1217;139193;-64
2022/03/19 01:56:15;;;;;;;44.70;22.30;;;;;;;1.93;38.06;101412.61;233229;1217;139188;-63
2022/03/19 02:01:19;;;;;;;44.80;22.10;;;;;;;1.89;38.35;101409.25;233316;1217;139421;-62
2022/03/19 02:06:28;;;;;;;39.80;21.80;;;;;;;1.84;38.37;101411.64;233224;1217;139679;-62
2022/03/19 02:11:34;;;;;;;47.20;21.80;;;;;;;1.80;38.56;101413.52;233241;1217;139138;-62
2022/03/19 02:16:38;;;;;;;40.90;20.80;;;;;;;1.77;38.69;101415.23;233347;1217;139544;-61
2022/03/19 02:21:49;;;;;;;44.60;21.90;;;;;;;1.74;38.58;101418.16;233266;1217;140842;-62
2022/03/19 02:26:53;;;;;;;41.90;21.80;;;;;;;1.73;38.85;101419.55;233301;1217;138872;-62
2022/03/19 02:32:03;;;;;;;45.40;22.00;;;;;;;1.72;38.80;101418.31;232567;1218;138815;-64
2022/03/19 02:37:06;;;;;;;40.20;21.90;;;;;;;1.66;38.81;101423.32;233313;1217;140243;-61
2022/03/19 02:42:09;;;;;;;48.10;24.10;;;;;;;1.59;38.81;101424.98;233287;1217;139325;-64
2022/03/19 02:47:12;;;;;;;44.60;22.70;;;;;;;1.55;39.05;101419.67;233447;1217;138814;-62
2022/03/19 02:52:15;;;;;;;43.80;22.90;;;;;;;1.52;39.29;101417.35;233242;1217;138920;-63
2022/03/19 02:57:18;;;;;;;46.20;23.60;;;;;;;1.47;39.32;101420.78;233172;1217;139197;-63
2022/03/19 03:02:21;;;;;;;46.20;22.00;;;;;;;1.39;39.41;101424.54;233215;1217;139357;-63
2022/03/19 03:07:24;;;;;;;42.40;21.80;;;;;;;1.34;39.44;101430.41;233228;1217;140072;-64
2022/03/19 03:12:28;;;;;;;40.90;22.30;;;;;;;1.30;39.48;101429.30;233320;1217;139517;-58
2022/03/19 03:17:33;;;;;;;39.80;21.30;;;;;;;1.27;39.60;101425.59;233208;1217;139215;-58
2022/03/19 03:22:37;;;;;;;51.10;23.50;;;;;;;1.23;39.69;101429.90;233296;1217;138825;-59
2022/03/19 03:27:41;;;;;;;47.00;23.20;;;;;;;1.20;39.73;101426.53;233289;1217;139789;-60
2022/03/19 03:32:43;;;;;;;48.90;24.00;;;;;;;1.17;39.74;101420.36;233208;1217;139490;-60
2022/03/19 03:37:46;;;;;;;46.00;23.10;;;;;;;1.16;39.85;101417.92;233371;1217;139571;-60
2022/03/19 03:42:49;;;;;;;45.70;23.10;;;;;;;1.18;39.97;101416.54;233216;1218;138812;-61
2022/03/19 03:47:53;;;;;;;45.20;22.60;;;;;;;1.17;39.93;101410.41;233242;1217;139684;-61
2022/03/19 03:52:56;;;;;;;46.20;23.30;;;;;;;1.15;40.04;101410.38;233175;1217;138926;-60
2022/03/19 03:58:00;;;;;;;48.20;25.20;;;;;;;1.13;40.06;101411.23;233132;1217;140164;-62
2022/03/19 04:03:06;;;;;;;47.20;24.40;;;;;;;1.15;40.11;101405.82;233203;1217;138837;-60
2022/03/19 04:08:09;;;;;;;48.60;25.50;;;;;;;1.13;40.08;101408.08;233202;1218;139735;-61
2022/03/19 04:13:12;;;;;;;48.20;25.00;;;;;;;1.08;40.19;101418.14;233204;1218;139063;-60
2022/03/19 04:18:15;;;;;;;51.20;25.80;;;;;;;1.02;40.19;101420.50;233306;1217;139039;-59
2022/03/19 04:23:20;;;;;;;49.80;24.50;;;;;;;0.94;40.44;101423.52;233182;1217;142813;-60
2022/03/19 04:28:23;;;;;;;49.70;25.70;;;;;;;0.83;40.51;101430.00;233303;1217;141420;-59
2022/03/19 04:33:25;;;;;;;52.10;25.60;;;;;;;0.76;40.87;101433.17;233346;1217;140647;-59
2022/03/19 04:38:29;;;;;;;47.50;25.40;;;;;;;0.69;40.91;101443.73;233260;1217;139166;-61
2022/03/19 04:43:32;;;;;;;48.20;24.50;;;;;;;0.66;41.05;101434.41;233225;1217;139866;-60
2022/03/19 04:48:35;;;;;;;48.40;24.70;;;;;;;0.65;40.99;101437.73;233255;1217;139328;-58
2022/03/19 04:53:38;;;;;;;45.70;24.20;;;;;;;0.64;41.18;101449.59;233191;1217;138930;-58
2022/03/19 04:58:43;;;;;;;44.10;23.90;;;;;;;0.64;41.18;101450.10;233313;1217;138774;-59
2022/03/19 05:03:47;;;;;;;46.10;23.60;;;;;;;0.64;41.25;101450.98;233556;1217;139316;-57
2022/03/19 05:11:12;;;;;;;45.00;24.30;;;;;;;0.64;41.17;101448.69;233295;1217;139551;-58
2022/03/19 05:14:16;;;;;;;47.50;23.80;;;;;;;0.65;41.26;101451.52;233211;1217;139066;-59
2022/03/19 05:19:19;;;;;;;47.70;23.70;;;;;;;0.64;41.38;101451.33;233299;1217;139501;-59
2022/03/19 05:24:22;;;;;;;48.70;24.60;;;;;;;0.63;41.38;101455.86;233331;1217;162884;-59
2022/03/19 05:29:25;;;;;;;48.60;25.10;;;;;;;0.63;41.55;101461.62;233229;1217;139747;-58
2022/03/19 05:34:31;;;;;;;44.10;23.90;;;;;;;0.64;41.57;101469.14;233304;1218;138969;-60
2022/03/19 05:39:34;;;;;;;47.50;24.30;;;;;;;0.67;41.63;101469.91;233342;1217;138933;-59
2022/03/19 05:44:39;;;;;;;415.10;256.40;;;;;;;0.73;41.82;101483.63;233222;1218;139112;-60
2022/03/19 05:49:42;;;;;;;58.40;31.60;;;;;;;0.92;42.27;101486.75;233284;1218;139927;-60
2022/03/19 05:54:45;;;;;;;51.00;26.60;;;;;;;1.09;41.92;101490.70;233246;1218;139156;-60
2022/03/19 05:59:48;;;;;;;49.60;25.40;;;;;;;1.14;41.87;101489.73;233186;1218;139082;-61
2022/03/19 06:04:52;;;;;;;44.10;25.10;;;;;;;1.19;41.89;101494.89;233372;1217;141154;-61
2022/03/19 06:09:55;;;;;;;46.60;24.50;;;;;;;1.25;41.66;101499.88;233447;1217;139241;-61
2022/03/19 06:14:58;;;;;;;54.80;28.30;;;;;;;1.37;42.26;101503.90;233174;1217;139080;-61
2022/03/19 06:20:01;;;;;;;51.40;27.00;;;;;;;1.48;42.09;101506.34;233285;1217;139050;-63
2022/03/19 06:25:05;;;;;;;48.60;25.30;;;;;;;1.53;42.08;101510.98;233161;1217;139133;-61
2022/03/19 06:30:09;;;;;;;44.70;24.60;;;;;;;1.57;41.88;101512.42;233375;1218;139582;-61
2022/03/19 06:37:19;;;;;;;42.90;23.90;;;;;;;1.65;41.84;101509.91;233305;1217;139223;-60
2022/03/19 06:40:35;;;;;;;258.50;176.60;;;;;;;1.75;41.72;101511.27;233171;1217;139185;-60
2022/03/19 06:45:38;;;;;;;63.20;33.50;;;;;;;1.92;41.94;101512.20;233208;1219;140384;-59
2022/03/19 06:50:42;;;;;;;49.00;27.00;;;;;;;2.06;41.54;101513.61;233205;1217;139048;-58
2022/03/19 06:55:45;;;;;;;50.60;26.60;;;;;;;2.17;41.39;101516.19;233105;1218;139493;-58
2022/03/19 07:00:49;;;;;;;49.40;26.60;;;;;;;2.26;41.32;101516.48;233150;1217;139593;-61
2022/03/19 07:05:53;;;;;;;403.40;243.30;;;;;;;2.37;41.37;101518.02;233244;1218;138991;-57
2022/03/19 07:11:16;;;;;;;68.40;36.70;;;;;;;2.58;41.46;101514.92;233226;1217;142319;-58
2022/03/19 07:16:19;;;;;;;52.20;29.50;;;;;;;2.69;41.13;101513.80;233153;1217;139854;-60
2022/03/19 07:21:22;;;;;;;44.90;24.90;;;;;;;2.79;40.90;101517.06;233288;1217;139039;-60
2022/03/19 07:26:26;;;;;;;40.00;22.70;;;;;;;2.90;40.67;101513.83;233122;1217;139340;-59
2022/03/19 07:31:29;;;;;;;40.30;22.70;;;;;;;3.03;40.70;101512.89;232975;1219;139003;-59
2022/03/19 07:36:35;;;;;;;41.10;22.70;;;;;;;3.18;40.65;101511.61;233082;1219;139351;-59
2022/03/19 07:41:52;;;;;;;41.00;21.70;;;;;;;3.32;40.45;101513.65;233119;1219;139651;-59
2022/03/19 07:46:59;;;;;;;154.90;73.70;;;;;;;3.49;40.59;101508.86;233043;1218;139475;-58
2022/03/19 07:52:05;;;;;;;40.60;23.50;;;;;;;3.71;40.46;101510.05;233392;1217;138993;-58
2022/03/19 07:57:10;;;;;;;;;;;;;;;3.84;40.35;101505.55;233086;1219;140023;-58
2022/03/19 08:02:13;;;;;;;35.50;20.90;;;;;;;3.95;40.15;101513.16;233312;1217;125841;-58
2022/03/19 08:07:17;;;;;;;32.20;19.10;;;;;;;4.10;39.84;101509.90;233207;1217;139713;-59
2022/03/19 08:12:21;;;;;;;34.50;18.60;;;;;;;4.20;39.57;101510.64;233083;1219;139173;-60
2022/03/19 08:17:25;;;;;;;251.50;140.80;;;;;;;4.39;40.12;101507.73;233135;1217;140838;-59
2022/03/19 08:22:28;;;;;;;39.10;21.40;;;;;;;4.86;40.01;101504.30;233066;1218;139375;-62
2022/03/19 08:27:31;;;;;;;29.30;17.90;;;;;;;5.01;39.01;101502.73;233200;1219;139305;-58
2022/03/19 08:32:34;;;;;;;33.50;18.40;;;;;;;5.11;38.79;101499.56;233103;1218;138961;-57
2022/03/19 08:37:37;;;;;;;28.90;17.40;;;;;;;5.21;38.78;101501.67;233158;1218;139011;-59
2022/03/19 08:42:40;;;;;;;30.50;16.90;;;;;;;5.32;38.46;101500.44;233106;1218;138810;-59
2022/03/19 08:47:43;;;;;;;29.10;15.80;;;;;;;5.44;38.17;101500.60;233155;1217;139207;-59
2022/03/19 08:52:46;;;;;;;27.50;15.90;;;;;;;5.56;37.77;101499.35;232990;1219;139765;-59
2022/03/19 08:57:50;;;;;;;26.90;15.50;;;;;;;5.68;37.69;101497.73;233236;1217;139664;-57
2022/03/19 09:02:55;;;;;;;354.30;246.30;;;;;;;5.84;37.50;101493.46;233229;1217;139446;-60
2022/03/19 09:07:59;;;;;;;37.30;20.70;;;;;;;6.10;37.13;101493.77;233095;1218;140125;-61
2022/03/19 09:13:02;;;;;;;29.00;15.10;;;;;;;6.28;36.78;101489.27;233356;1217;140725;-61
2022/03/19 09:18:05;;;;;;;23.00;13.00;;;;;;;6.41;36.42;101491.85;233146;1217;138963;-61
2022/03/19 09:23:09;;;;;;;38.50;21.20;;;;;;;6.53;36.09;101490.55;233127;1217;139652;-59
2022/03/19 09:28:13;;;;;;;26.60;15.80;;;;;;;6.77;35.92;101489.86;233220;1217;139657;-61
2022/03/19 09:33:16;;;;;;;23.40;14.10;;;;;;;6.97;35.45;101487.95;233134;1217;139325;-61
2022/03/19 09:38:20;;;;;;;23.00;13.50;;;;;;;7.06;35.15;101492.13;233101;1217;139434;-61
2022/03/19 09:43:24;;;;;;;24.60;15.20;;;;;;;7.14;34.64;101490.45;233117;1217;139282;-62
2022/03/19 09:48:27;;;;;;;27.40;15.00;;;;;;;7.24;34.76;101487.91;233023;1219;138942;-61
2022/03/19 09:53:31;;;;;;;25.80;14.30;;;;;;;7.39;34.37;101487.58;233030;1217;139246;-61
2022/03/19 09:58:55;;;;;;;27.70;15.80;;;;;;;7.43;33.77;101486.30;233001;1217;140147;-61
2022/03/19 10:04:07;;;;;;;177.90;116.50;;;;;;;7.49;34.01;101477.78;233170;1217;139570;-60
2022/03/19 10:09:17;;;;;;;27.30;14.20;;;;;;;7.65;34.17;101482.73;233113;1217;139477;-60
2022/03/19 10:14:22;;;;;;;23.40;12.60;;;;;;;7.86;33.97;101477.39;233090;1217;139555;-59
2022/03/19 10:19:25;;;;;;;19.90;11.90;;;;;;;8.05;33.60;101471.31;232961;1219;139383;-59
2022/03/19 10:24:29;;;;;;;19.30;10.90;;;;;;;8.23;33.22;101467.71;233072;1217;139925;-59
2022/03/19 10:29:33;;;;;;;16.60;10.60;;;;;;;8.44;32.93;101470.65;233054;1219;139052;-60
2022/03/19 10:34:40;;;;;;;16.30;10.70;;;;;;;8.66;32.58;101473.34;233175;1217;139750;-59
2022/03/19 10:39:46;;;;;;;16.50;9.50;;;;;;;8.92;32.28;101461.80;233164;1217;140119;-59
2022/03/19 10:44:49;;;;;;;41.30;29.10;;;;;;;9.22;32.07;101457.02;233137;1219;139687;-60
2022/03/19 10:50:00;;;;;;;17.10;9.40;;;;;;;9.53;31.70;101451.85;233046;1217;140009;-58
2022/03/19 10:55:04;;;;;;;14.40;9.00;;;;;;;9.76;31.14;101454.61;233066;1217;139351;-60
2022/03/19 11:00:08;;;;;;;17.10;9.00;;;;;;;9.95;30.64;101450.33;232984;1217;138664;-59
2022/03/19 11:05:12;;;;;;;12.90;8.40;;;;;;;10.06;30.47;101449.73;232931;1217;142301;-59
2022/03/19 11:10:15;;;;;;;18.40;9.60;;;;;;;10.12;30.24;101449.95;233127;1217;139290;-59
2022/03/19 11:15:20;;;;;;;16.00;9.50;;;;;;;10.20;30.18;101441.63;233131;1217;139690;-62
2022/03/19 11:20:23;;;;;;;18.80;11.20;;;;;;;10.32;29.97;101441.23;232904;1219;139283;-60
2022/03/19 11:25:25;;;;;;;19.90;10.10;;;;;;;10.40;29.93;101429.68;233021;1217;139420;-61
2022/03/19 11:30:40;;;;;;;16.90;9.90;;;;;;;10.45;29.60;101425.50;233179;1217;140048;-61
2022/03/19 11:36:00;;;;;;;15.40;9.30;;;;;;;10.49;28.91;101430.55;233148;1217;140167;-61
2022/03/19 11:41:18;;;;;;;19.00;10.60;;;;;;;10.57;29.20;101426.46;233076;1217;139895;-62
2022/03/19 11:46:21;;;;;;;204.00;121.30;;;;;;;10.69;29.07;101419.61;233113;1217;140309;-61
2022/03/19 11:51:24;;;;;;;28.40;14.80;;;;;;;10.91;29.34;101413.00;232978;1217;140982;-60
2022/03/19 11:56:35;;;;;;;35.70;12.00;;;;;;;11.15;29.16;101405.30;232985;1218;139660;-61
2022/03/19 12:01:49;;;;;;;15.10;7.40;;;;;;;11.36;28.33;101402.59;233232;1217;139228;-60
2022/03/19 12:06:55;;;;;;;15.90;7.00;;;;;;;11.59;28.26;101393.61;233084;1217;139495;-60
2022/03/19 12:12:24;;;;;;;10.50;6.40;;;;;;;11.89;28.02;101390.10;233059;1218;139189;-59
2022/03/19 12:17:28;;;;;;;11.80;7.30;;;;;;;12.21;27.23;101385.05;233093;1217;140864;-61
2022/03/19 12:22:33;;;;;;;12.60;6.80;;;;;;;12.41;27.29;101382.45;233174;1217;142031;-61
2022/03/19 12:27:38;;;;;;;13.90;7.80;;;;;;;12.57;26.69;101382.98;233264;1217;139523;-61
2022/03/19 12:32:55;;;;;;;14.10;7.20;;;;;;;12.76;26.84;101382.89;233057;1217;139172;-60
2022/03/19 12:37:58;;;;;;;13.80;8.10;;;;;;;12.88;26.21;101384.98;233016;1219;141284;-61
2022/03/19 12:43:02;;;;;;;13.60;7.90;;;;;;;12.97;25.89;101383.60;233065;1217;139847;-62
2022/03/19 12:48:09;;;;;;;16.10;8.80;;;;;;;12.95;25.89;101385.47;233139;1217;140044;-61
2022/03/19 12:53:12;;;;;;;46.90;30.30;;;;;;;12.88;25.23;101379.64;233125;1217;139537;-61
2022/03/19 12:58:15;;;;;;;18.60;9.50;;;;;;;12.86;25.38;101375.42;233815;1218;139096;-60
2022/03/19 13:03:30;;;;;;;10.90;6.60;;;;;;;13.03;25.08;101372.55;233718;1217;139767;-64
2022/03/19 13:08:50;;;;;;;14.70;6.20;;;;;;;13.09;24.67;101370.55;233624;1218;139355;-60
2022/03/19 13:13:53;;;;;;;11.90;7.10;;;;;;;13.13;24.83;101362.75;233529;1217;139940;-62
2022/03/19 13:19:05;;;;;;;10.60;6.70;;;;;;;13.27;24.77;101374.73;233327;1218;139457;-62
2022/03/19 13:24:10;;;;;;;13.70;6.90;;;;;;;13.48;24.55;101366.69;233137;1217;140182;-62
2022/03/19 13:29:35;;;;;;;33.30;20.40;;;;;;;13.70;24.66;101363.20;233101;1217;139152;-59
2022/03/19 13:34:46;;;;;;;13.00;6.50;;;;;;;13.93;25.45;101361.42;233073;1217;139898;-60
2022/03/19 13:40:01;;;;;;;12.10;7.10;;;;;;;14.14;24.73;101357.55;233114;1217;139247;-61
2022/03/19 13:45:12;;;;;;;10.90;6.90;;;;;;;14.25;24.15;101358.39;233067;1217;139686;-62
2022/03/19 13:50:17;;;;;;;13.90;6.90;;;;;;;14.33;24.04;101352.68;233018;1217;140129;-60
2022/03/19 13:55:20;;;;;;;238.30;156.60;;;;;;;14.39;23.79;101355.84;233114;1217;140679;-61
2022/03/19 14:00:28;;;;;;;31.70;13.00;;;;;;;14.19;24.00;101358.45;233069;1217;139953;-60
2022/03/19 14:05:40;;;;;;;12.10;6.90;;;;;;;13.59;23.27;101361.63;233182;1217;140394;-60
2022/03/19 14:10:51;;;;;;;10.70;7.10;;;;;;;12.98;23.50;101357.58;233207;1217;139056;-60
2022/03/19 14:15:55;;;;;;;16.70;7.10;;;;;;;12.43;23.36;101366.37;233251;1217;139321;-61
2022/03/19 14:21:03;;;;;;;11.20;6.30;;;;;;;11.97;23.41;101366.55;233189;1217;139229;-60
2022/03/19 14:26:12;;;;;;;9.90;6.20;;;;;;;11.66;23.56;101365.64;233134;1217;139295;-60
2022/03/19 14:31:19;;;;;;;11.10;6.30;;;;;;;11.37;23.81;101368.61;233197;1217;141292;-59
2022/03/19 14:36:22;;;;;;;10.20;6.30;;;;;;;11.13;23.56;101371.40;233213;1217;139870;-59
2022/03/19 14:41:25;;;;;;;7.90;5.40;;;;;;;10.90;23.75;101372.36;233226;1217;139061;-59
2022/03/19 14:46:28;;;;;;;11.30;5.70;;;;;;;10.75;23.78;101372.74;233295;1217;139557;-60
2022/03/19 14:51:31;;;;;;;11.80;5.90;;;;;;;10.60;23.85;101375.08;233445;1217;139476;-60
2022/03/19 14:56:36;;;;;;;13.30;6.50;;;;;;;10.51;23.84;101380.09;233191;1217;139272;-59
2022/03/19 15:01:39;;;;;;;12.60;5.70;;;;;;;10.42;24.01;101378.52;233200;1217;139340;-59
2022/03/19 15:06:42;;;;;;;12.50;5.80;;;;;;;10.33;23.89;101376.98;233180;1217;141004;-59
2022/03/19 15:11:45;;;;;;;8.70;5.00;;;;;;;10.25;23.95;101376.96;233168;1217;139252;-58
2022/03/19 15:16:48;;;;;;;15.20;5.70;;;;;;;10.17;23.72;101374.11;233209;1217;139708;-62
2022/03/19 15:21:51;;;;;;;11.30;5.30;;;;;;;10.09;23.73;101373.95;233277;1217;139206;-60
2022/03/19 15:27:15;;;;;;;10.50;5.10;;;;;;;9.96;23.60;101374.76;233178;1217;140588;-59
2022/03/19 15:32:20;;;;;;;10.30;5.40;;;;;;;9.83;23.70;101378.05;233233;1217;139323;-59
2022/03/19 15:37:23;;;;;;;11.50;5.50;;;;;;;9.76;23.79;101382.63;233199;1217;140908;-60
2022/03/19 15:42:26;;;;;;;10.70;5.20;;;;;;;9.69;23.88;101380.46;233104;1217;138896;-60
2022/03/19 15:47:29;;;;;;;11.00;6.10;;;;;;;9.63;23.90;101385.04;233266;1217;139792;-60
2022/03/19 15:52:32;;;;;;;10.40;5.80;;;;;;;9.55;24.05;101387.48;233144;1217;141154;-61
2022/03/19 15:57:35;;;;;;;9.90;5.70;;;;;;;9.47;24.15;101391.36;233258;1218;139054;-59
2022/03/19 16:02:38;;;;;;;10.70;5.70;;;;;;;9.39;24.20;101394.54;233375;1217;139248;-59
2022/03/19 16:07:41;;;;;;;10.20;6.00;;;;;;;9.33;24.30;101394.66;233206;1217;138755;-61
2022/03/19 16:12:45;;;;;;;8.50;6.10;;;;;;;9.29;24.41;101398.46;233351;1217;139238;-60
2022/03/19 16:17:48;;;;;;;9.60;6.10;;;;;;;9.21;24.41;101406.39;233463;1217;138444;-59
2022/03/19 16:22:52;;;;;;;11.40;6.40;;;;;;;9.13;24.64;101408.83;233265;1217;139494;-60
2022/03/19 16:27:54;;;;;;;13.70;7.20;;;;;;;9.07;24.72;101413.38;233382;1217;139345;-60
2022/03/19 16:32:58;;;;;;;13.70;5.90;;;;;;;9.03;24.87;101423.90;233272;1217;138775;-60
2022/03/19 16:38:01;;;;;;;11.80;6.80;;;;;;;9.00;24.88;101429.79;233339;1217;139898;-61
2022/03/19 16:43:10;;;;;;;16.30;8.10;;;;;;;8.95;24.95;101431.62;233239;1217;139373;-59
2022/03/19 16:48:13;;;;;;;16.60;7.60;;;;;;;8.89;25.23;101437.23;233274;1218;139626;-59
2022/03/19 16:53:16;;;;;;;15.20;8.40;;;;;;;8.79;25.40;101447.13;233253;1217;138696;-59
2022/03/19 16:58:19;;;;;;;12.60;7.60;;;;;;;8.70;25.49;101447.80;233311;1217;139794;-61
2022/03/19 17:03:22;;;;;;;17.30;8.10;;;;;;;8.59;25.56;101452.39;233365;1217;138908;-58
2022/03/19 17:08:26;;;;;;;17.70;9.60;;;;;;;8.52;25.63;101458.52;233446;1217;139672;-59
2022/03/19 17:13:29;;;;;;;18.30;9.20;;;;;;;8.44;25.89;101461.27;233236;1218;139011;-59
2022/03/19 17:18:33;;;;;;;20.70;10.60;;;;;;;8.35;25.91;101467.92;233188;1219;138657;-61
2022/03/19 17:23:36;;;;;;;25.20;12.00;;;;;;;8.25;26.10;101472.82;233192;1217;139915;-61
2022/03/19 17:28:39;;;;;;;26.80;12.60;;;;;;;8.17;25.95;101480.36;233004;1217;139964;-59
2022/03/19 17:33:42;;;;;;;30.60;14.40;;;;;;;8.12;26.59;101486.79;233345;1217;141147;-59
2022/03/19 17:38:45;;;;;;;25.10;13.00;;;;;;;8.08;26.45;101494.27;233232;1217;139095;-61
2022/03/19 17:43:48;;;;;;;37.10;22.00;;;;;;;8.00;26.68;101494.19;233099;1219;139770;-60
2022/03/19 17:48:51;;;;;;;24.80;12.90;;;;;;;7.95;26.61;101498.84;233133;1217;139239;-61
2022/03/19 17:53:54;;;;;;;24.60;12.70;;;;;;;7.85;26.69;101497.89;233196;1217;139728;-61
2022/03/19 17:58:57;;;;;;;25.60;12.70;;;;;;;7.75;26.67;101502.77;233135;1217;139089;-62
2022/03/19 18:04:00;;;;;;;24.60;13.90;;;;;;;7.66;26.80;101504.63;233315;1217;138835;-61
2022/03/19 18:09:04;;;;;;;39.00;18.10;;;;;;;7.58;26.83;101507.89;233202;1217;139552;-61
2022/03/19 18:14:07;;;;;;;39.00;19.20;;;;;;;7.49;27.32;101505.86;233063;1219;140659;-61
2022/03/19 18:19:10;;;;;;;39.90;19.50;;;;;;;7.40;27.35;101508.23;233142;1217;139250;-61
2022/03/19 18:24:14;;;;;;;37.80;18.80;;;;;;;7.28;27.44;101510.82;233270;1217;139155;-60
2022/03/19 18:29:20;;;;;;;34.80;18.50;;;;;;;7.18;27.31;101511.09;233164;1217;139573;-59
2022/03/19 18:34:25;;;;;;;38.40;19.50;;;;;;;7.08;27.64;101508.86;233308;1217;139577;-61
2022/03/19 18:39:28;;;;;;;47.50;25.80;;;;;;;7.09;28.24;101510.45;233087;1217;139097;-60
2022/03/19 18:44:31;;;;;;;45.30;21.00;;;;;;;7.10;28.34;101511.49;233186;1218;139061;-60
2022/03/19 18:49:34;;;;;;;46.20;20.80;;;;;;;7.00;28.61;101518.99;233171;1219;139080;-59
2022/03/19 18:54:39;;;;;;;36.00;20.00;;;;;;;6.88;28.87;101525.96;233192;1219;139572;-58
2022/03/19 18:59:43;;;;;;;37.70;19.80;;;;;;;6.80;29.09;101531.48;233055;1219;140715;-59
2022/03/19 19:04:47;;;;;;;36.80;20.10;;;;;;;6.73;29.21;101530.46;233364;1217;139496;-60
2022/03/19 19:09:50;;;;;;;40.50;20.30;;;;;;;6.62;29.39;101534.58;233285;1217;139363;-61
2022/03/19 19:14:55;;;;;;;42.20;20.10;;;;;;;6.53;29.94;101536.75;233283;1217;139637;-62
2022/03/19 19:19:58;;;;;;;37.10;20.10;;;;;;;6.49;29.94;101542.24;233139;1217;139753;-59
2022/03/19 19:25:01;;;;;;;35.00;19.20;;;;;;;6.42;30.50;101542.63;233043;1219;139098;-61
2022/03/19 19:30:06;;;;;;;40.50;19.50;;;;;;;6.37;30.59;101540.00;233153;1217;139170;-58
2022/03/19 19:35:09;;;;;;;35.50;18.90;;;;;;;6.31;30.60;101538.27;233301;1217;139465;-59
2022/03/19 19:40:12;;;;;;;247.20;145.10;;;;;;;6.25;30.79;101541.29;233248;1217;138986;-60
2022/03/19 19:45:15;;;;;;;43.50;24.00;;;;;;;6.31;31.60;101544.79;233183;1217;139795;-60
2022/03/19 19:50:18;;;;;;;33.80;18.80;;;;;;;6.31;31.02;101545.85;233166;1217;140579;-60
2022/03/19 19:55:22;;;;;;;38.50;19.80;;;;;;;6.22;31.26;101543.06;233159;1218;139048;-60
2022/03/19 20:00:32;;;;;;;32.50;17.50;;;;;;;6.13;31.09;101544.33;233145;1219;139299;-61
2022/03/19 20:05:36;;;;;;;34.70;16.90;;;;;;;6.05;31.07;101539.96;233203;1218;139227;-59
2022/03/19 20:10:39;;;;;;;33.70;17.60;;;;;;;6.03;31.27;101540.48;233198;1218;140608;-59
2022/03/19 20:15:42;;;;;;;31.90;16.50;;;;;;;5.99;31.01;101545.08;233324;1219;139261;-59
2022/03/19 20:20:46;;;;;;;33.00;18.90;;;;;;;5.93;31.20;101544.38;233181;1218;140033;-60
2022/03/19 20:25:53;;;;;;;38.20;18.00;;;;;;;5.89;31.18;101542.61;233229;1218;139783;-61
2022/03/19 20:30:57;;;;;;;34.20;17.50;;;;;;;5.83;30.83;101539.80;233226;1217;139111;-61
2022/03/19 20:36:06;;;;;;;203.50;130.90;;;;;;;5.78;30.92;101537.86;233232;1217;139317;-62
2022/03/19 20:41:09;;;;;;;448.10;202.00;;;;;;;5.88;32.15;101536.27;233177;1217;139664;-62
2022/03/19 20:46:12;;;;;;;62.80;31.00;;;;;;;5.94;31.48;101537.69;233301;1219;139464;-62
2022/03/19 20:51:15;;;;;;;43.70;21.90;;;;;;;5.84;31.12;101541.91;233230;1218;139168;-61
2022/03/19 20:56:18;;;;;;;34.00;18.10;;;;;;;5.73;31.25;101540.18;233159;1217;138984;-63
2022/03/19 21:01:22;;;;;;;35.40;18.10;;;;;;;5.67;31.08;101541.59;233329;1218;139404;-62
2022/03/19 21:06:26;;;;;;;35.00;18.30;;;;;;;5.60;31.44;101542.30;233205;1218;139416;-61
2022/03/19 21:11:41;;;;;;;36.00;17.70;;;;;;;5.52;31.16;101543.89;233172;1218;139028;-62
2022/03/19 21:16:45;;;;;;;39.80;19.30;;;;;;;5.41;31.22;101548.14;233156;1217;139024;-61
2022/03/19 21:21:50;;;;;;;40.30;19.10;;;;;;;5.34;31.42;101549.38;233216;1217;138792;-62
2022/03/19 21:26:53;;;;;;;35.80;18.20;;;;;;;5.23;31.18;101553.77;233214;1217;138889;-61
2022/03/19 21:31:56;;;;;;;193.50;124.80;;;;;;;5.17;31.58;101555.52;233016;1217;139612;-62
2022/03/19 21:36:59;;;;;;;41.20;23.70;;;;;;;5.23;32.23;101558.70;233019;1217;140782;-62
2022/03/19 21:42:02;;;;;;;36.30;18.80;;;;;;;5.29;32.09;101552.19;233080;1217;140252;-61
2022/03/19 21:47:05;;;;;;;40.40;19.70;;;;;;;5.19;31.58;101554.64;233179;1217;139146;-60
2022/03/19 21:52:08;;;;;;;41.10;20.40;;;;;;;5.04;31.77;101557.80;233199;1217;139296;-60
2022/03/19 21:57:12;;;;;;;44.00;21.90;;;;;;;4.90;31.76;101558.31;233112;1217;138999;-62
2022/03/19 22:02:15;;;;;;;37.00;19.60;;;;;;;4.84;31.93;101558.81;233130;1217;139724;-61
2022/03/19 22:07:18;;;;;;;41.80;21.20;;;;;;;4.76;31.90;101558.27;233154;1217;140662;-61
2022/03/19 22:12:43;;;;;;;37.60;20.20;;;;;;;4.65;31.99;101563.69;233175;1217;139332;-62
2022/03/19 22:17:46;;;;;;;42.20;22.30;;;;;;;4.50;32.30;101565.23;233193;1217;139089;-61
2022/03/19 22:22:49;;;;;;;41.00;21.00;;;;;;;4.37;32.63;101569.93;233205;1217;139126;-63
2022/03/19 22:27:52;;;;;;;43.90;21.20;;;;;;;4.31;32.62;101574.30;233357;1217;139091;-61
2022/03/19 22:32:56;;;;;;;40.40;21.00;;;;;;;4.24;32.84;101576.73;233188;1217;139542;-60
2022/03/19 22:38:00;;;;;;;43.20;20.70;;;;;;;4.16;33.01;101581.08;233168;1217;138909;-59
2022/03/19 22:43:05;;;;;;;46.40;21.90;;;;;;;4.03;33.31;101578.19;233261;1217;139213;-62
2022/03/19 22:48:09;;;;;;;41.70;22.20;;;;;;;3.93;33.25;101583.94;233201;1217;139879;-60
2022/03/19 22:53:13;;;;;;;43.00;22.50;;;;;;;3.86;33.58;101581.60;233193;1217;138819;-61